M/T Four Island — IBCA — position and weather

sailwx.info

Track history (hours):
 
Tides and Currents Weather Stations Pressure Air Temp Water Temp Dewpoint Dewpoint Depression Visibility Wind Speed Wind Dir Waves Ship Positions

M/T Four Island

Last reported at 2014-Dec-13 13:22 UTC. Time now 2014-Dec-22 17:45 UTC.
Position N 01°55' E 102°21'.
Warning: this ship's position is 9 days out of date.

Length 233 m; draft 8.5 m.

Type: Ship. MMSI: 247008000.

Date/timePositionNaut miles runAvg speedWind from/ knotsBaromVisibWave heightAir tempDewpointWater temp
2014-Dec-13 13:22N 01°55' E 102°21'1011.6
2014-Dec-13 12:33N 01°51' E 102°30'1212.2
2014-Dec-13 11:33N 01°46' E 102°40'70 9.4
2014-Dec-13 04:10N 01°11' E 103°40'3 5.5
2014-Dec-13 03:33N 01°09' E 103°43'6 5.8
2014-Dec-13 02:33N 01°11' E 103°48'1110.7
2014-Dec-13 01:33N 01°15' E 103°58'1110.5
2014-Dec-13 00:30N 01°17' E 104°09'7 3.0
2014-Dec-12 22:19N 01°20' E 104°15'0 0.0
2014-Dec-12 03:26N 01°20' E 104°15'0 0.0
2014-Dec-11 14:07N 01°20' E 104°15'0 0.0
2014-Dec-11 03:08N 01°20' E 104°15'0 0.0
2014-Dec-11 01:31N 01°20' E 104°15'  
Track history (hours):
 
Tides and Currents Weather Stations Pressure Air Temp Water Temp Dewpoint Dewpoint Depression Visibility Wind Speed Wind Dir Waves Ship Positions

M/T Four Island

Last reported at 2014-Dec-13 13:22 UTC. Time now 2014-Dec-22 17:45 UTC.
Position N 01°55' E 102°21'.
Warning: this ship's position is 9 days out of date.

Length 233 m; draft 8.5 m.

Type: Ship. MMSI: 247008000.

Date/timePositionNaut miles runAvg speedWind from/ knotsBaromVisibWave heightAir tempDewpointWater temp
2014-Dec-13 13:22N 01°55' E 102°21'1011.6
2014-Dec-13 12:33N 01°51' E 102°30'1212.2
2014-Dec-13 11:33N 01°46' E 102°40'70 9.4
2014-Dec-13 04:10N 01°11' E 103°40'3 5.5
2014-Dec-13 03:33N 01°09' E 103°43'6 5.8
2014-Dec-13 02:33N 01°11' E 103°48'1110.7
2014-Dec-13 01:33N 01°15' E 103°58'1110.5
2014-Dec-13 00:30N 01°17' E 104°09'7 3.0
2014-Dec-12 22:19N 01°20' E 104°15'0 0.0
2014-Dec-12 03:26N 01°20' E 104°15'0 0.0
2014-Dec-11 14:07N 01°20' E 104°15'0 0.0
2014-Dec-11 03:08N 01°20' E 104°15'0 0.0
2014-Dec-11 01:31N 01°20' E 104°15'  

Dump ship's entire track history